Poplar Corners, Mississippi
Current Conditions -  °F | °C
As of 9:54 PM on Wednesday 28 Jan 2015 (Local Time) from KMEM Reporting Station
Scattered Clouds Scattered Clouds  
Wind Chill: 53°   Ceiling: Unl
Heat Index: 53°   Visibility: 10mi
Dew Point: 32°   Wind: 10mph
Humidity: 45%   Direction: 170°S
Pressure: 30.08"   Gusts: NA
Location:  34.9578°N, 90.1057°W
Report Text: KMEM 290354Z 17009KT 10SM SCT250 12/00 A3008 RMK AO2 SLP186 T01170000 $
Loading
Personal Weather Stations






























Interactive Weather Map New forecast layout! Learn more

10-Day Weather Forecast

Advertisements
Track Severe Weather on mobile